sensor_id;sensor_type;location;lat;lon;timestamp;P1;durP1;ratioP1;P2;durP2;ratioP2
38843;SDS011;24596;48.080;8.362;2023-04-07T00:00:52;7.57;;;3.30;;
38843;SDS011;24596;48.080;8.362;2023-04-07T00:03:17;7.63;;;3.22;;
38843;SDS011;24596;48.080;8.362;2023-04-07T00:05:42;8.77;;;3.63;;
38843;SDS011;24596;48.080;8.362;2023-04-07T00:08:07;8.30;;;3.28;;
38843;SDS011;24596;48.080;8.362;2023-04-07T00:10:33;7.00;;;3.47;;
38843;SDS011;24596;48.080;8.362;2023-04-07T00:12:58;6.35;;;2.97;;
38843;SDS011;24596;48.080;8.362;2023-04-07T00:15:24;7.53;;;3.38;;
38843;SDS011;24596;48.080;8.362;2023-04-07T00:17:49;5.55;;;2.90;;
38843;SDS011;24596;48.080;8.362;2023-04-07T00:20:14;6.88;;;3.30;;
38843;SDS011;24596;48.080;8.362;2023-04-07T00:22:40;7.18;;;3.33;;
38843;SDS011;24596;48.080;8.362;2023-04-07T00:25:05;6.13;;;2.83;;
38843;SDS011;24596;48.080;8.362;2023-04-07T00:27:30;5.93;;;2.72;;
38843;SDS011;24596;48.080;8.362;2023-04-07T00:29:56;6.15;;;2.58;;
38843;SDS011;24596;48.080;8.362;2023-04-07T00:32:21;7.10;;;2.70;;
38843;SDS011;24596;48.080;8.362;2023-04-07T00:34:46;5.90;;;2.95;;
38843;SDS011;24596;48.080;8.362;2023-04-07T00:37:11;6.93;;;2.88;;
38843;SDS011;24596;48.080;8.362;2023-04-07T00:39:37;8.27;;;2.92;;
38843;SDS011;24596;48.080;8.362;2023-04-07T00:42:02;7.03;;;3.30;;
38843;SDS011;24596;48.080;8.362;2023-04-07T00:44:27;7.63;;;3.03;;
38843;SDS011;24596;48.080;8.362;2023-04-07T00:46:53;7.07;;;3.75;;
38843;SDS011;24596;48.080;8.362;2023-04-07T00:49:18;9.02;;;3.65;;
38843;SDS011;24596;48.080;8.362;2023-04-07T00:51:43;7.53;;;3.65;;
38843;SDS011;24596;48.080;8.362;2023-04-07T00:54:09;7.63;;;3.85;;
38843;SDS011;24596;48.080;8.362;2023-04-07T00:56:35;7.32;;;3.65;;
38843;SDS011;24596;48.080;8.362;2023-04-07T00:59:01;7.20;;;3.80;;
38843;SDS011;24596;48.080;8.362;2023-04-07T01:01:32;7.28;;;3.35;;
38843;SDS011;24596;48.080;8.362;2023-04-07T01:06:25;7.18;;;3.45;;
38843;SDS011;24596;48.080;8.362;2023-04-07T01:09:01;10.05;;;3.78;;
38843;SDS011;24596;48.080;8.362;2023-04-07T01:11:47;7.82;;;3.58;;
38843;SDS011;24596;48.080;8.362;2023-04-07T01:14:13;10.15;;;3.50;;
38843;SDS011;24596;48.080;8.362;2023-04-07T01:16:47;8.77;;;3.35;;
38843;SDS011;24596;48.080;8.362;2023-04-07T01:19:31;8.25;;;3.60;;
38843;SDS011;24596;48.080;8.362;2023-04-07T01:21:57;7.65;;;3.63;;
38843;SDS011;24596;48.080;8.362;2023-04-07T01:27:13;10.73;;;4.35;;
38843;SDS011;24596;48.080;8.362;2023-04-07T01:29:41;7.53;;;3.90;;
38843;SDS011;24596;48.080;8.362;2023-04-07T01:32:11;8.95;;;4.22;;
38843;SDS011;24596;48.080;8.362;2023-04-07T01:34:36;8.57;;;4.10;;
38843;SDS011;24596;48.080;8.362;2023-04-07T01:37:02;10.27;;;4.40;;
38843;SDS011;24596;48.080;8.362;2023-04-07T01:39:28;8.05;;;4.43;;
38843;SDS011;24596;48.080;8.362;2023-04-07T01:41:54;10.63;;;3.80;;
38843;SDS011;24596;48.080;8.362;2023-04-07T01:44:20;10.60;;;4.40;;
38843;SDS011;24596;48.080;8.362;2023-04-07T01:46:45;8.18;;;3.90;;
38843;SDS011;24596;48.080;8.362;2023-04-07T01:49:11;9.32;;;4.03;;
38843;SDS011;24596;48.080;8.362;2023-04-07T01:51:37;12.35;;;4.63;;
38843;SDS011;24596;48.080;8.362;2023-04-07T01:54:03;8.50;;;4.32;;
38843;SDS011;24596;48.080;8.362;2023-04-07T01:56:28;7.72;;;4.10;;
38843;SDS011;24596;48.080;8.362;2023-04-07T01:58:53;10.77;;;4.60;;
38843;SDS011;24596;48.080;8.362;2023-04-07T02:01:18;7.55;;;4.13;;
38843;SDS011;24596;48.080;8.362;2023-04-07T02:06:21;8.65;;;4.70;;
38843;SDS011;24596;48.080;8.362;2023-04-07T02:08:48;9.30;;;3.97;;
38843;SDS011;24596;48.080;8.362;2023-04-07T02:11:16;8.85;;;4.68;;
38843;SDS011;24596;48.080;8.362;2023-04-07T02:13:42;7.15;;;4.30;;
38843;SDS011;24596;48.080;8.362;2023-04-07T02:16:10;11.48;;;4.60;;
38843;SDS011;24596;48.080;8.362;2023-04-07T02:18:36;7.95;;;4.22;;
38843;SDS011;24596;48.080;8.362;2023-04-07T02:21:02;8.43;;;4.18;;
38843;SDS011;24596;48.080;8.362;2023-04-07T02:23:28;9.52;;;4.47;;
38843;SDS011;24596;48.080;8.362;2023-04-07T02:25:56;10.55;;;4.88;;
38843;SDS011;24596;48.080;8.362;2023-04-07T02:28:22;10.60;;;4.10;;
38843;SDS011;24596;48.080;8.362;2023-04-07T02:30:47;9.38;;;4.97;;
38843;SDS011;24596;48.080;8.362;2023-04-07T02:33:13;10.02;;;4.75;;
38843;SDS011;24596;48.080;8.362;2023-04-07T02:35:38;8.00;;;4.07;;
38843;SDS011;24596;48.080;8.362;2023-04-07T02:38:03;8.60;;;5.00;;
38843;SDS011;24596;48.080;8.362;2023-04-07T02:40:28;11.55;;;4.30;;
38843;SDS011;24596;48.080;8.362;2023-04-07T02:42:54;9.68;;;4.07;;
38843;SDS011;24596;48.080;8.362;2023-04-07T02:45:19;8.05;;;4.20;;
38843;SDS011;24596;48.080;8.362;2023-04-07T02:47:44;9.45;;;4.65;;
38843;SDS011;24596;48.080;8.362;2023-04-07T02:50:10;7.47;;;4.30;;
38843;SDS011;24596;48.080;8.362;2023-04-07T02:52:35;9.60;;;4.70;;
38843;SDS011;24596;48.080;8.362;2023-04-07T02:55:00;8.50;;;4.25;;
38843;SDS011;24596;48.080;8.362;2023-04-07T02:57:25;9.85;;;4.60;;
38843;SDS011;24596;48.080;8.362;2023-04-07T02:59:51;9.43;;;4.32;;
38843;SDS011;24596;48.080;8.362;2023-04-07T03:02:16;7.22;;;4.05;;
38843;SDS011;24596;48.080;8.362;2023-04-07T03:04:41;8.57;;;3.92;;
38843;SDS011;24596;48.080;8.362;2023-04-07T03:07:06;9.13;;;4.53;;
38843;SDS011;24596;48.080;8.362;2023-04-07T03:09:31;8.07;;;4.47;;
38843;SDS011;24596;48.080;8.362;2023-04-07T03:11:57;7.68;;;4.20;;
38843;SDS011;24596;48.080;8.362;2023-04-07T03:14:22;10.15;;;4.13;;
38843;SDS011;24596;48.080;8.362;2023-04-07T03:16:47;9.38;;;5.00;;
38843;SDS011;24596;48.080;8.362;2023-04-07T03:19:12;7.93;;;4.07;;
38843;SDS011;24596;48.080;8.362;2023-04-07T03:21:38;11.70;;;4.90;;
38843;SDS011;24596;48.080;8.362;2023-04-07T03:24:04;10.88;;;4.00;;
38843;SDS011;24596;48.080;8.362;2023-04-07T03:26:29;8.43;;;4.55;;
38843;SDS011;24596;48.080;8.362;2023-04-07T03:28:54;7.68;;;3.42;;
38843;SDS011;24596;48.080;8.362;2023-04-07T03:31:20;7.35;;;3.50;;
38843;SDS011;24596;48.080;8.362;2023-04-07T03:33:45;8.48;;;4.10;;
38843;SDS011;24596;48.080;8.362;2023-04-07T03:36:10;6.88;;;3.47;;
38843;SDS011;24596;48.080;8.362;2023-04-07T03:38:36;7.85;;;4.32;;
38843;SDS011;24596;48.080;8.362;2023-04-07T03:41:01;8.38;;;3.58;;
38843;SDS011;24596;48.080;8.362;2023-04-07T03:43:26;7.30;;;3.78;;
38843;SDS011;24596;48.080;8.362;2023-04-07T03:45:52;10.30;;;3.97;;
38843;SDS011;24596;48.080;8.362;2023-04-07T03:48:17;7.72;;;3.63;;
38843;SDS011;24596;48.080;8.362;2023-04-07T03:50:42;9.13;;;3.83;;
38843;SDS011;24596;48.080;8.362;2023-04-07T03:53:07;6.63;;;3.10;;
38843;SDS011;24596;48.080;8.362;2023-04-07T03:55:33;8.75;;;3.30;;
38843;SDS011;24596;48.080;8.362;2023-04-07T03:57:58;6.15;;;3.10;;
38843;SDS011;24596;48.080;8.362;2023-04-07T04:00:24;7.78;;;3.13;;
38843;SDS011;24596;48.080;8.362;2023-04-07T04:02:50;6.28;;;3.03;;
38843;SDS011;24596;48.080;8.362;2023-04-07T04:05:16;6.22;;;2.90;;
38843;SDS011;24596;48.080;8.362;2023-04-07T04:07:41;8.80;;;3.10;;
38843;SDS011;24596;48.080;8.362;2023-04-07T04:10:06;8.45;;;3.05;;
38843;SDS011;24596;48.080;8.362;2023-04-07T04:12:32;6.75;;;3.00;;
38843;SDS011;24596;48.080;8.362;2023-04-07T04:14:57;8.32;;;2.90;;
38843;SDS011;24596;48.080;8.362;2023-04-07T04:17:22;6.55;;;2.90;;
38843;SDS011;24596;48.080;8.362;2023-04-07T04:19:47;9.20;;;3.42;;
38843;SDS011;24596;48.080;8.362;2023-04-07T04:22:12;8.07;;;2.80;;
38843;SDS011;24596;48.080;8.362;2023-04-07T04:24:38;5.68;;;2.38;;
38843;SDS011;24596;48.080;8.362;2023-04-07T04:27:03;6.13;;;2.65;;
38843;SDS011;24596;48.080;8.362;2023-04-07T04:29:28;5.38;;;2.63;;
38843;SDS011;24596;48.080;8.362;2023-04-07T04:31:53;7.07;;;3.22;;
38843;SDS011;24596;48.080;8.362;2023-04-07T04:34:18;8.30;;;3.63;;
38843;SDS011;24596;48.080;8.362;2023-04-07T04:36:44;5.72;;;3.20;;
38843;SDS011;24596;48.080;8.362;2023-04-07T04:39:09;8.43;;;3.30;;
38843;SDS011;24596;48.080;8.362;2023-04-07T04:41:34;7.25;;;3.25;;
38843;SDS011;24596;48.080;8.362;2023-04-07T04:44:00;6.88;;;2.97;;
38843;SDS011;24596;48.080;8.362;2023-04-07T04:46:25;7.07;;;3.67;;
38843;SDS011;24596;48.080;8.362;2023-04-07T04:48:51;7.00;;;3.70;;
38843;SDS011;24596;48.080;8.362;2023-04-07T04:51:16;7.45;;;3.70;;
38843;SDS011;24596;48.080;8.362;2023-04-07T04:53:42;8.75;;;4.80;;
38843;SDS011;24596;48.080;8.362;2023-04-07T04:56:07;9.25;;;4.68;;
38843;SDS011;24596;48.080;8.362;2023-04-07T04:58:32;9.90;;;4.95;;
38843;SDS011;24596;48.080;8.362;2023-04-07T05:00:58;10.63;;;4.55;;
38843;SDS011;24596;48.080;8.362;2023-04-07T05:03:24;10.73;;;4.53;;
38843;SDS011;24596;48.080;8.362;2023-04-07T05:05:52;9.18;;;4.60;;
38843;SDS011;24596;48.080;8.362;2023-04-07T05:08:17;9.10;;;4.07;;
38843;SDS011;24596;48.080;8.362;2023-04-07T05:10:42;9.82;;;4.47;;
38843;SDS011;24596;48.080;8.362;2023-04-07T05:13:07;8.65;;;4.35;;
38843;SDS011;24596;48.080;8.362;2023-04-07T05:15:33;7.60;;;4.28;;
38843;SDS011;24596;48.080;8.362;2023-04-07T05:17:58;8.55;;;4.85;;
38843;SDS011;24596;48.080;8.362;2023-04-07T05:20:23;12.02;;;4.82;;
38843;SDS011;24596;48.080;8.362;2023-04-07T05:22:48;11.77;;;5.93;;
38843;SDS011;24596;48.080;8.362;2023-04-07T05:25:14;10.73;;;5.78;;
38843;SDS011;24596;48.080;8.362;2023-04-07T05:27:39;10.02;;;5.03;;
38843;SDS011;24596;48.080;8.362;2023-04-07T05:30:05;9.68;;;4.40;;
38843;SDS011;24596;48.080;8.362;2023-04-07T05:32:30;12.77;;;5.10;;
38843;SDS011;24596;48.080;8.362;2023-04-07T05:34:56;12.63;;;6.95;;
38843;SDS011;24596;48.080;8.362;2023-04-07T05:37:21;11.82;;;5.90;;
38843;SDS011;24596;48.080;8.362;2023-04-07T05:39:46;11.80;;;5.28;;
38843;SDS011;24596;48.080;8.362;2023-04-07T05:42:11;9.27;;;5.53;;
38843;SDS011;24596;48.080;8.362;2023-04-07T05:44:37;10.32;;;4.90;;
38843;SDS011;24596;48.080;8.362;2023-04-07T05:47:02;11.10;;;5.25;;
38843;SDS011;24596;48.080;8.362;2023-04-07T05:49:32;14.18;;;4.75;;
38843;SDS011;24596;48.080;8.362;2023-04-07T05:51:57;9.15;;;4.68;;
38843;SDS011;24596;48.080;8.362;2023-04-07T05:54:23;9.30;;;5.03;;
38843;SDS011;24596;48.080;8.362;2023-04-07T05:56:48;9.07;;;5.47;;
38843;SDS011;24596;48.080;8.362;2023-04-07T05:59:13;11.55;;;5.30;;
38843;SDS011;24596;48.080;8.362;2023-04-07T06:01:38;10.20;;;5.00;;
38843;SDS011;24596;48.080;8.362;2023-04-07T06:04:04;12.68;;;5.53;;
38843;SDS011;24596;48.080;8.362;2023-04-07T06:06:29;10.35;;;4.85;;
38843;SDS011;24596;48.080;8.362;2023-04-07T06:08:55;8.55;;;4.70;;
38843;SDS011;24596;48.080;8.362;2023-04-07T06:11:20;9.00;;;4.95;;
38843;SDS011;24596;48.080;8.362;2023-04-07T06:13:45;7.93;;;4.25;;
38843;SDS011;24596;48.080;8.362;2023-04-07T06:16:11;8.52;;;4.47;;
38843;SDS011;24596;48.080;8.362;2023-04-07T06:18:36;6.95;;;3.92;;
38843;SDS011;24596;48.080;8.362;2023-04-07T06:21:01;7.88;;;3.80;;
38843;SDS011;24596;48.080;8.362;2023-04-07T06:23:27;10.15;;;3.70;;
38843;SDS011;24596;48.080;8.362;2023-04-07T06:25:52;7.72;;;3.80;;
38843;SDS011;24596;48.080;8.362;2023-04-07T06:28:18;7.53;;;3.78;;
38843;SDS011;24596;48.080;8.362;2023-04-07T06:30:43;9.73;;;3.63;;
38843;SDS011;24596;48.080;8.362;2023-04-07T06:33:09;7.60;;;3.92;;
38843;SDS011;24596;48.080;8.362;2023-04-07T06:35:34;9.13;;;3.60;;
38843;SDS011;24596;48.080;8.362;2023-04-07T06:38:00;8.90;;;4.25;;
38843;SDS011;24596;48.080;8.362;2023-04-07T06:40:26;8.73;;;4.60;;
38843;SDS011;24596;48.080;8.362;2023-04-07T06:42:51;8.77;;;4.18;;
38843;SDS011;24596;48.080;8.362;2023-04-07T06:45:18;9.95;;;4.97;;
38843;SDS011;24596;48.080;8.362;2023-04-07T06:47:43;7.63;;;4.20;;
38843;SDS011;24596;48.080;8.362;2023-04-07T06:50:09;10.50;;;4.70;;
38843;SDS011;24596;48.080;8.362;2023-04-07T06:52:34;9.15;;;4.13;;
38843;SDS011;24596;48.080;8.362;2023-04-07T06:54:59;8.35;;;4.47;;
38843;SDS011;24596;48.080;8.362;2023-04-07T06:57:24;9.23;;;4.72;;
38843;SDS011;24596;48.080;8.362;2023-04-07T06:59:50;10.25;;;4.28;;
38843;SDS011;24596;48.080;8.362;2023-04-07T07:02:15;9.20;;;4.55;;
38843;SDS011;24596;48.080;8.362;2023-04-07T07:04:40;8.88;;;4.10;;
38843;SDS011;24596;48.080;8.362;2023-04-07T07:07:06;9.70;;;4.88;;
38843;SDS011;24596;48.080;8.362;2023-04-07T07:09:31;10.43;;;4.45;;
38843;SDS011;24596;48.080;8.362;2023-04-07T07:11:56;10.48;;;4.90;;
38843;SDS011;24596;48.080;8.362;2023-04-07T07:14:21;9.95;;;4.63;;
38843;SDS011;24596;48.080;8.362;2023-04-07T07:16:46;11.48;;;5.63;;
38843;SDS011;24596;48.080;8.362;2023-04-07T07:19:12;10.00;;;4.80;;
38843;SDS011;24596;48.080;8.362;2023-04-07T07:21:38;11.48;;;5.07;;
38843;SDS011;24596;48.080;8.362;2023-04-07T07:24:03;10.52;;;5.00;;
38843;SDS011;24596;48.080;8.362;2023-04-07T07:26:29;9.45;;;4.20;;
38843;SDS011;24596;48.080;8.362;2023-04-07T07:28:54;7.82;;;3.95;;
38843;SDS011;24596;48.080;8.362;2023-04-07T07:31:19;10.40;;;4.30;;
38843;SDS011;24596;48.080;8.362;2023-04-07T07:33:44;9.07;;;4.68;;
38843;SDS011;24596;48.080;8.362;2023-04-07T07:36:12;12.82;;;4.70;;
38843;SDS011;24596;48.080;8.362;2023-04-07T07:38:39;9.07;;;3.75;;
38843;SDS011;24596;48.080;8.362;2023-04-07T07:41:05;8.82;;;4.38;;
38843;SDS011;24596;48.080;8.362;2023-04-07T07:43:30;7.65;;;4.10;;
38843;SDS011;24596;48.080;8.362;2023-04-07T07:45:55;10.35;;;4.82;;
38843;SDS011;24596;48.080;8.362;2023-04-07T07:48:20;8.50;;;4.03;;
38843;SDS011;24596;48.080;8.362;2023-04-07T07:50:46;9.02;;;4.20;;
38843;SDS011;24596;48.080;8.362;2023-04-07T07:53:12;10.32;;;4.57;;
38843;SDS011;24596;48.080;8.362;2023-04-07T07:55:37;8.75;;;4.05;;
38843;SDS011;24596;48.080;8.362;2023-04-07T07:58:02;12.18;;;4.65;;
38843;SDS011;24596;48.080;8.362;2023-04-07T08:00:28;11.38;;;4.63;;
38843;SDS011;24596;48.080;8.362;2023-04-07T08:02:53;8.25;;;4.43;;
38843;SDS011;24596;48.080;8.362;2023-04-07T08:05:18;9.77;;;4.05;;
38843;SDS011;24596;48.080;8.362;2023-04-07T08:07:44;8.77;;;4.38;;
38843;SDS011;24596;48.080;8.362;2023-04-07T08:10:09;11.45;;;4.28;;
38843;SDS011;24596;48.080;8.362;2023-04-07T08:12:34;8.35;;;4.40;;
38843;SDS011;24596;48.080;8.362;2023-04-07T08:14:59;9.70;;;4.35;;
38843;SDS011;24596;48.080;8.362;2023-04-07T08:17:25;7.90;;;4.07;;
38843;SDS011;24596;48.080;8.362;2023-04-07T08:19:50;9.25;;;4.22;;
38843;SDS011;24596;48.080;8.362;2023-04-07T08:22:15;10.77;;;5.43;;
38843;SDS011;24596;48.080;8.362;2023-04-07T08:24:41;9.93;;;4.13;;
38843;SDS011;24596;48.080;8.362;2023-04-07T08:27:06;9.73;;;3.67;;
38843;SDS011;24596;48.080;8.362;2023-04-07T08:29:31;13.52;;;6.38;;
38843;SDS011;24596;48.080;8.362;2023-04-07T08:31:56;30.60;;;13.02;;
38843;SDS011;24596;48.080;8.362;2023-04-07T08:34:21;21.02;;;8.02;;
38843;SDS011;24596;48.080;8.362;2023-04-07T08:36:47;8.50;;;4.15;;
38843;SDS011;24596;48.080;8.362;2023-04-07T08:39:12;25.60;;;10.68;;
38843;SDS011;24596;48.080;8.362;2023-04-07T08:41:38;19.30;;;8.88;;
38843;SDS011;24596;48.080;8.362;2023-04-07T08:44:03;13.90;;;6.40;;
38843;SDS011;24596;48.080;8.362;2023-04-07T08:46:29;12.43;;;4.65;;
38843;SDS011;24596;48.080;8.362;2023-04-07T08:48:54;12.48;;;3.90;;
38843;SDS011;24596;48.080;8.362;2023-04-07T08:51:44;10.38;;;3.97;;
38843;SDS011;24596;48.080;8.362;2023-04-07T08:54:15;10.70;;;5.32;;
38843;SDS011;24596;48.080;8.362;2023-04-07T08:56:41;8.45;;;3.88;;
38843;SDS011;24596;48.080;8.362;2023-04-07T08:59:07;15.63;;;4.80;;
38843;SDS011;24596;48.080;8.362;2023-04-07T09:01:33;9.80;;;4.28;;
38843;SDS011;24596;48.080;8.362;2023-04-07T09:04:00;9.40;;;3.85;;
38843;SDS011;24596;48.080;8.362;2023-04-07T09:06:25;10.30;;;4.10;;
38843;SDS011;24596;48.080;8.362;2023-04-07T09:08:51;11.05;;;4.35;;
38843;SDS011;24596;48.080;8.362;2023-04-07T09:11:16;14.95;;;6.63;;
38843;SDS011;24596;48.080;8.362;2023-04-07T09:13:42;14.13;;;8.52;;
38843;SDS011;24596;48.080;8.362;2023-04-07T09:16:07;9.75;;;4.72;;
38843;SDS011;24596;48.080;8.362;2023-04-07T09:18:32;9.95;;;4.68;;
38843;SDS011;24596;48.080;8.362;2023-04-07T09:21:01;7.90;;;3.80;;
38843;SDS011;24596;48.080;8.362;2023-04-07T09:23:31;9.38;;;3.60;;
38843;SDS011;24596;48.080;8.362;2023-04-07T09:25:57;11.52;;;4.60;;
38843;SDS011;24596;48.080;8.362;2023-04-07T09:28:41;10.48;;;5.43;;
38843;SDS011;24596;48.080;8.362;2023-04-07T09:31:07;8.67;;;4.20;;
38843;SDS011;24596;48.080;8.362;2023-04-07T09:33:32;7.63;;;3.67;;
38843;SDS011;24596;48.080;8.362;2023-04-07T09:35:57;6.63;;;3.90;;
38843;SDS011;24596;48.080;8.362;2023-04-07T09:38:23;8.95;;;4.03;;
38843;SDS011;24596;48.080;8.362;2023-04-07T09:41:04;9.48;;;3.70;;
38843;SDS011;24596;48.080;8.362;2023-04-07T09:43:29;9.82;;;3.63;;
38843;SDS011;24596;48.080;8.362;2023-04-07T09:46:05;6.70;;;3.25;;
38843;SDS011;24596;48.080;8.362;2023-04-07T09:48:30;10.20;;;3.80;;
38843;SDS011;24596;48.080;8.362;2023-04-07T09:51:03;7.88;;;3.55;;
38843;SDS011;24596;48.080;8.362;2023-04-07T09:53:50;8.10;;;3.50;;
38843;SDS011;24596;48.080;8.362;2023-04-07T09:56:17;10.93;;;4.15;;
38843;SDS011;24596;48.080;8.362;2023-04-07T09:58:43;7.25;;;3.30;;
38843;SDS011;24596;48.080;8.362;2023-04-07T10:01:09;8.55;;;3.75;;
38843;SDS011;24596;48.080;8.362;2023-04-07T10:03:35;9.02;;;3.45;;
38843;SDS011;24596;48.080;8.362;2023-04-07T10:06:00;7.40;;;4.47;;
38843;SDS011;24596;48.080;8.362;2023-04-07T10:08:33;8.75;;;3.80;;
38843;SDS011;24596;48.080;8.362;2023-04-07T10:11:01;7.03;;;3.33;;
38843;SDS011;24596;48.080;8.362;2023-04-07T10:13:28;6.63;;;3.40;;
38843;SDS011;24596;48.080;8.362;2023-04-07T10:15:53;8.57;;;4.20;;
38843;SDS011;24596;48.080;8.362;2023-04-07T10:18:19;9.60;;;4.50;;
38843;SDS011;24596;48.080;8.362;2023-04-07T10:20:45;9.52;;;3.50;;
38843;SDS011;24596;48.080;8.362;2023-04-07T10:25:59;7.30;;;3.90;;
38843;SDS011;24596;48.080;8.362;2023-04-07T10:28:26;10.60;;;3.95;;
38843;SDS011;24596;48.080;8.362;2023-04-07T10:30:52;9.32;;;4.18;;
38843;SDS011;24596;48.080;8.362;2023-04-07T10:33:42;7.15;;;3.95;;
38843;SDS011;24596;48.080;8.362;2023-04-07T10:36:06;11.98;;;4.07;;
38843;SDS011;24596;48.080;8.362;2023-04-07T10:38:31;8.32;;;4.20;;
38843;SDS011;24596;48.080;8.362;2023-04-07T10:40:57;6.60;;;3.80;;
38843;SDS011;24596;48.080;8.362;2023-04-07T10:43:38;10.48;;;4.70;;
38843;SDS011;24596;48.080;8.362;2023-04-07T10:46:05;8.80;;;4.53;;
38843;SDS011;24596;48.080;8.362;2023-04-07T10:48:30;7.55;;;4.35;;
38843;SDS011;24596;48.080;8.362;2023-04-07T10:53:28;10.63;;;5.25;;
38843;SDS011;24596;48.080;8.362;2023-04-07T10:55:53;8.15;;;4.80;;
38843;SDS011;24596;48.080;8.362;2023-04-07T11:03:26;11.23;;;5.40;;
38843;SDS011;24596;48.080;8.362;2023-04-07T11:05:51;10.30;;;5.30;;
38843;SDS011;24596;48.080;8.362;2023-04-07T11:11:36;9.55;;;4.50;;
38843;SDS011;24596;48.080;8.362;2023-04-07T11:14:02;10.27;;;4.75;;
38843;SDS011;24596;48.080;8.362;2023-04-07T11:16:38;11.85;;;5.07;;
38843;SDS011;24596;48.080;8.362;2023-04-07T11:19:04;9.23;;;4.50;;
38843;SDS011;24596;48.080;8.362;2023-04-07T11:21:29;9.60;;;4.47;;
38843;SDS011;24596;48.080;8.362;2023-04-07T11:23:54;7.40;;;4.20;;
38843;SDS011;24596;48.080;8.362;2023-04-07T11:26:19;7.97;;;5.00;;
38843;SDS011;24596;48.080;8.362;2023-04-07T11:31:11;9.48;;;4.85;;
38843;SDS011;24596;48.080;8.362;2023-04-07T11:33:36;8.95;;;4.43;;
38843;SDS011;24596;48.080;8.362;2023-04-07T11:36:05;9.30;;;4.80;;
38843;SDS011;24596;48.080;8.362;2023-04-07T11:38:34;6.82;;;3.92;;
38843;SDS011;24596;48.080;8.362;2023-04-07T11:41:08;7.13;;;3.75;;
38843;SDS011;24596;48.080;8.362;2023-04-07T11:43:34;8.18;;;3.75;;
38843;SDS011;24596;48.080;8.362;2023-04-07T11:46:14;10.90;;;4.40;;
38843;SDS011;24596;48.080;8.362;2023-04-07T11:48:40;10.60;;;4.28;;
38843;SDS011;24596;48.080;8.362;2023-04-07T11:51:06;7.00;;;3.55;;
38843;SDS011;24596;48.080;8.362;2023-04-07T11:56:07;7.22;;;3.25;;
38843;SDS011;24596;48.080;8.362;2023-04-07T11:58:33;11.05;;;4.25;;
38843;SDS011;24596;48.080;8.362;2023-04-07T12:00:59;7.28;;;3.85;;
38843;SDS011;24596;48.080;8.362;2023-04-07T12:03:29;7.05;;;3.60;;
38843;SDS011;24596;48.080;8.362;2023-04-07T12:05:54;7.28;;;4.20;;
38843;SDS011;24596;48.080;8.362;2023-04-07T12:08:19;9.15;;;3.50;;
38843;SDS011;24596;48.080;8.362;2023-04-07T12:10:45;8.45;;;4.10;;
38843;SDS011;24596;48.080;8.362;2023-04-07T12:13:11;9.90;;;4.55;;
38843;SDS011;24596;48.080;8.362;2023-04-07T12:15:37;9.65;;;4.75;;
38843;SDS011;24596;48.080;8.362;2023-04-07T12:18:02;10.07;;;3.97;;
38843;SDS011;24596;48.080;8.362;2023-04-07T12:20:27;7.78;;;4.05;;
38843;SDS011;24596;48.080;8.362;2023-04-07T12:22:53;9.48;;;4.45;;
38843;SDS011;24596;48.080;8.362;2023-04-07T12:25:18;7.38;;;3.75;;
38843;SDS011;24596;48.080;8.362;2023-04-07T12:27:43;17.63;;;5.53;;
38843;SDS011;24596;48.080;8.362;2023-04-07T12:30:09;11.07;;;4.15;;
38843;SDS011;24596;48.080;8.362;2023-04-07T12:32:34;7.80;;;3.63;;
38843;SDS011;24596;48.080;8.362;2023-04-07T12:34:59;8.13;;;3.13;;
38843;SDS011;24596;48.080;8.362;2023-04-07T12:37:25;10.63;;;3.70;;
38843;SDS011;24596;48.080;8.362;2023-04-07T12:39:51;7.18;;;3.30;;
38843;SDS011;24596;48.080;8.362;2023-04-07T12:42:16;7.65;;;4.07;;
38843;SDS011;24596;48.080;8.362;2023-04-07T12:44:41;7.85;;;3.75;;
38843;SDS011;24596;48.080;8.362;2023-04-07T12:47:07;7.95;;;4.03;;
38843;SDS011;24596;48.080;8.362;2023-04-07T12:49:32;7.35;;;3.63;;
38843;SDS011;24596;48.080;8.362;2023-04-07T12:51:57;7.82;;;4.70;;
38843;SDS011;24596;48.080;8.362;2023-04-07T12:54:22;8.35;;;4.88;;
38843;SDS011;24596;48.080;8.362;2023-04-07T12:56:48;8.23;;;4.10;;
38843;SDS011;24596;48.080;8.362;2023-04-07T12:59:13;12.18;;;4.07;;
38843;SDS011;24596;48.080;8.362;2023-04-07T13:01:38;7.22;;;3.80;;
38843;SDS011;24596;48.080;8.362;2023-04-07T13:04:04;8.50;;;4.35;;
38843;SDS011;24596;48.080;8.362;2023-04-07T13:06:29;8.85;;;4.30;;
38843;SDS011;24596;48.080;8.362;2023-04-07T13:08:56;8.93;;;4.05;;
38843;SDS011;24596;48.080;8.362;2023-04-07T13:11:21;10.13;;;4.70;;
38843;SDS011;24596;48.080;8.362;2023-04-07T13:13:46;7.93;;;4.40;;
38843;SDS011;24596;48.080;8.362;2023-04-07T13:16:11;8.23;;;4.07;;
38843;SDS011;24596;48.080;8.362;2023-04-07T13:18:37;8.73;;;4.35;;
38843;SDS011;24596;48.080;8.362;2023-04-07T13:21:02;7.82;;;4.32;;
38843;SDS011;24596;48.080;8.362;2023-04-07T13:23:28;6.60;;;3.88;;
38843;SDS011;24596;48.080;8.362;2023-04-07T13:25:53;8.85;;;4.28;;
38843;SDS011;24596;48.080;8.362;2023-04-07T13:28:18;7.40;;;4.25;;
38843;SDS011;24596;48.080;8.362;2023-04-07T13:30:45;25.00;;;12.57;;
38843;SDS011;24596;48.080;8.362;2023-04-07T13:33:10;25.83;;;11.48;;
38843;SDS011;24596;48.080;8.362;2023-04-07T13:35:35;9.70;;;5.60;;
38843;SDS011;24596;48.080;8.362;2023-04-07T13:38:01;8.25;;;4.50;;
38843;SDS011;24596;48.080;8.362;2023-04-07T13:40:27;9.93;;;4.60;;
38843;SDS011;24596;48.080;8.362;2023-04-07T13:42:52;11.07;;;4.60;;
38843;SDS011;24596;48.080;8.362;2023-04-07T13:45:17;9.98;;;4.82;;
38843;SDS011;24596;48.080;8.362;2023-04-07T13:47:43;7.60;;;4.55;;
38843;SDS011;24596;48.080;8.362;2023-04-07T13:50:08;7.75;;;4.50;;
38843;SDS011;24596;48.080;8.362;2023-04-07T13:52:33;9.10;;;4.28;;
38843;SDS011;24596;48.080;8.362;2023-04-07T13:54:59;10.40;;;5.22;;
38843;SDS011;24596;48.080;8.362;2023-04-07T13:57:25;9.07;;;4.80;;
38843;SDS011;24596;48.080;8.362;2023-04-07T13:59:50;12.25;;;4.93;;
38843;SDS011;24596;48.080;8.362;2023-04-07T14:02:19;11.52;;;4.35;;
38843;SDS011;24596;48.080;8.362;2023-04-07T14:04:44;10.80;;;4.90;;
38843;SDS011;24596;48.080;8.362;2023-04-07T14:07:09;10.25;;;4.43;;
38843;SDS011;24596;48.080;8.362;2023-04-07T14:09:35;8.38;;;4.13;;
38843;SDS011;24596;48.080;8.362;2023-04-07T14:12:01;9.95;;;4.80;;
38843;SDS011;24596;48.080;8.362;2023-04-07T14:14:26;10.48;;;5.22;;
38843;SDS011;24596;48.080;8.362;2023-04-07T14:16:52;8.98;;;4.05;;
38843;SDS011;24596;48.080;8.362;2023-04-07T14:19:20;11.13;;;4.60;;
38843;SDS011;24596;48.080;8.362;2023-04-07T14:21:51;9.15;;;4.32;;
38843;SDS011;24596;48.080;8.362;2023-04-07T14:24:16;6.78;;;3.90;;
38843;SDS011;24596;48.080;8.362;2023-04-07T14:26:42;7.25;;;4.18;;
38843;SDS011;24596;48.080;8.362;2023-04-07T14:29:07;7.40;;;4.07;;
38843;SDS011;24596;48.080;8.362;2023-04-07T14:31:32;7.85;;;4.00;;
38843;SDS011;24596;48.080;8.362;2023-04-07T14:33:57;9.30;;;5.03;;
38843;SDS011;24596;48.080;8.362;2023-04-07T14:36:23;8.73;;;4.20;;
38843;SDS011;24596;48.080;8.362;2023-04-07T14:38:48;9.43;;;3.80;;
38843;SDS011;24596;48.080;8.362;2023-04-07T14:41:14;7.68;;;4.32;;
38843;SDS011;24596;48.080;8.362;2023-04-07T14:43:40;8.13;;;3.83;;
38843;SDS011;24596;48.080;8.362;2023-04-07T14:46:06;7.18;;;4.10;;
38843;SDS011;24596;48.080;8.362;2023-04-07T14:48:31;11.40;;;5.82;;
38843;SDS011;24596;48.080;8.362;2023-04-07T14:50:57;9.50;;;5.50;;
38843;SDS011;24596;48.080;8.362;2023-04-07T14:53:22;9.55;;;4.95;;
38843;SDS011;24596;48.080;8.362;2023-04-07T14:55:47;11.43;;;6.68;;
38843;SDS011;24596;48.080;8.362;2023-04-07T14:58:12;11.85;;;7.15;;
38843;SDS011;24596;48.080;8.362;2023-04-07T15:00:38;11.95;;;7.90;;
38843;SDS011;24596;48.080;8.362;2023-04-07T15:03:03;9.07;;;5.28;;